sensor_id;sensor_type;location;lat;lon;timestamp;temperature;humidity
72128;DHT22;60000;51.030;7.024;2022-08-20T00:00:53;21.15;78.28
72128;DHT22;60000;51.030;7.024;2022-08-20T00:03:21;21.15;78.36
72128;DHT22;60000;51.030;7.024;2022-08-20T00:05:49;21.15;78.46
72128;DHT22;60000;51.030;7.024;2022-08-20T00:08:17;21.17;78.60
72128;DHT22;60000;51.030;7.024;2022-08-20T00:10:44;21.17;78.55
72128;DHT22;60000;51.030;7.024;2022-08-20T00:13:15;21.12;78.34
72128;DHT22;60000;51.030;7.024;2022-08-20T00:15:41;21.14;78.49
72128;DHT22;60000;51.030;7.024;2022-08-20T00:18:08;21.12;78.50
72128;DHT22;60000;51.030;7.024;2022-08-20T00:20:38;21.10;78.67
72128;DHT22;60000;51.030;7.024;2022-08-20T00:23:04;21.14;78.73
72128;DHT22;60000;51.030;7.024;2022-08-20T00:25:30;21.11;78.95
72128;DHT22;60000;51.030;7.024;2022-08-20T00:27:56;21.10;79.15
72128;DHT22;60000;51.030;7.024;2022-08-20T00:30:23;21.10;79.20
72128;DHT22;60000;51.030;7.024;2022-08-20T00:33:00;21.04;79.98
72128;DHT22;60000;51.030;7.024;2022-08-20T00:35:28;21.01;80.15
72128;DHT22;60000;51.030;7.024;2022-08-20T00:37:55;20.97;80.77
72128;DHT22;60000;51.030;7.024;2022-08-20T00:40:24;20.93;81.12
72128;DHT22;60000;51.030;7.024;2022-08-20T00:42:54;20.93;81.30
72128;DHT22;60000;51.030;7.024;2022-08-20T00:45:25;20.88;81.71
72128;DHT22;60000;51.030;7.024;2022-08-20T00:47:51;20.81;82.05
72128;DHT22;60000;51.030;7.024;2022-08-20T00:50:21;20.77;82.42
72128;DHT22;60000;51.030;7.024;2022-08-20T00:52:49;20.72;82.46
72128;DHT22;60000;51.030;7.024;2022-08-20T00:55:17;20.66;82.65
72128;DHT22;60000;51.030;7.024;2022-08-20T00:57:47;20.63;83.10
72128;DHT22;60000;51.030;7.024;2022-08-20T01:00:21;20.60;83.07
72128;DHT22;60000;51.030;7.024;2022-08-20T01:02:47;20.56;83.16
72128;DHT22;60000;51.030;7.024;2022-08-20T01:05:13;20.45;83.11
72128;DHT22;60000;51.030;7.024;2022-08-20T01:07:39;20.42;83.10
72128;DHT22;60000;51.030;7.024;2022-08-20T01:10:09;20.39;83.38
72128;DHT22;60000;51.030;7.024;2022-08-20T01:12:37;20.35;83.34
72128;DHT22;60000;51.030;7.024;2022-08-20T01:15:05;20.33;83.45
72128;DHT22;60000;51.030;7.024;2022-08-20T01:17:35;20.28;83.65
72128;DHT22;60000;51.030;7.024;2022-08-20T01:20:07;20.25;84.05
72128;DHT22;60000;51.030;7.024;2022-08-20T01:28:30;20.16;84.36
72128;DHT22;60000;51.030;7.024;2022-08-20T01:30:56;20.14;84.28
72128;DHT22;60000;51.030;7.024;2022-08-20T01:33:22;20.11;84.40
72128;DHT22;60000;51.030;7.024;2022-08-20T01:35:48;20.11;84.59
72128;DHT22;60000;51.030;7.024;2022-08-20T01:38:15;20.06;84.16
72128;DHT22;60000;51.030;7.024;2022-08-20T01:43:20;20.05;84.05
72128;DHT22;60000;51.030;7.024;2022-08-20T01:45:48;20.01;83.98
72128;DHT22;60000;51.030;7.024;2022-08-20T01:48:14;20.02;84.02
72128;DHT22;60000;51.030;7.024;2022-08-20T01:50:41;20.04;83.97
72128;DHT22;60000;51.030;7.024;2022-08-20T01:53:18;19.99;83.66
72128;DHT22;60000;51.030;7.024;2022-08-20T01:55:44;19.98;83.68
72128;DHT22;60000;51.030;7.024;2022-08-20T01:58:10;19.94;83.33
72128;DHT22;60000;51.030;7.024;2022-08-20T02:00:35;19.94;83.34
72128;DHT22;60000;51.030;7.024;2022-08-20T02:03:01;19.92;83.65
72128;DHT22;60000;51.030;7.024;2022-08-20T02:05:28;19.91;84.15
72128;DHT22;60000;51.030;7.024;2022-08-20T02:07:53;19.95;84.33
72128;DHT22;60000;51.030;7.024;2022-08-20T02:10:20;19.91;84.32
72128;DHT22;60000;51.030;7.024;2022-08-20T02:12:45;19.89;84.39
72128;DHT22;60000;51.030;7.024;2022-08-20T02:15:12;19.88;84.41
72128;DHT22;60000;51.030;7.024;2022-08-20T02:17:37;19.88;84.45
72128;DHT22;60000;51.030;7.024;2022-08-20T02:20:14;19.85;84.59
72128;DHT22;60000;51.030;7.024;2022-08-20T02:22:44;19.82;84.47
72128;DHT22;60000;51.030;7.024;2022-08-20T02:25:10;19.79;84.41
72128;DHT22;60000;51.030;7.024;2022-08-20T02:27:38;19.79;84.41
72128;DHT22;60000;51.030;7.024;2022-08-20T02:30:08;19.79;84.38
72128;DHT22;60000;51.030;7.024;2022-08-20T02:32:36;19.74;84.24
72128;DHT22;60000;51.030;7.024;2022-08-20T02:35:06;19.75;84.08
72128;DHT22;60000;51.030;7.024;2022-08-20T02:37:34;19.75;84.03
72128;DHT22;60000;51.030;7.024;2022-08-20T02:39:59;19.73;83.94
72128;DHT22;60000;51.030;7.024;2022-08-20T02:42:25;19.71;83.95
72128;DHT22;60000;51.030;7.024;2022-08-20T02:44:51;19.70;84.06
72128;DHT22;60000;51.030;7.024;2022-08-20T02:47:17;19.67;84.16
72128;DHT22;60000;51.030;7.024;2022-08-20T02:49:42;19.64;84.41
72128;DHT22;60000;51.030;7.024;2022-08-20T02:52:08;19.63;84.57
72128;DHT22;60000;51.030;7.024;2022-08-20T02:54:33;19.63;84.74
72128;DHT22;60000;51.030;7.024;2022-08-20T02:56:59;19.63;84.77
72128;DHT22;60000;51.030;7.024;2022-08-20T02:59:26;19.60;84.90
72128;DHT22;60000;51.030;7.024;2022-08-20T03:01:51;19.61;84.89
72128;DHT22;60000;51.030;7.024;2022-08-20T03:04:17;19.61;84.96
72128;DHT22;60000;51.030;7.024;2022-08-20T03:06:42;19.64;84.85
72128;DHT22;60000;51.030;7.024;2022-08-20T03:09:08;19.64;84.85
72128;DHT22;60000;51.030;7.024;2022-08-20T03:11:33;19.61;84.96
72128;DHT22;60000;51.030;7.024;2022-08-20T03:13:59;19.64;85.04
72128;DHT22;60000;51.030;7.024;2022-08-20T03:16:25;19.65;84.71
72128;DHT22;60000;51.030;7.024;2022-08-20T03:18:50;19.64;84.68
72128;DHT22;60000;51.030;7.024;2022-08-20T03:21:15;19.64;84.59
72128;DHT22;60000;51.030;7.024;2022-08-20T03:23:41;19.64;84.40
72128;DHT22;60000;51.030;7.024;2022-08-20T03:26:09;19.64;84.28
72128;DHT22;60000;51.030;7.024;2022-08-20T03:28:35;19.67;84.15
72128;DHT22;60000;51.030;7.024;2022-08-20T03:31:02;19.65;84.09
72128;DHT22;60000;51.030;7.024;2022-08-20T03:33:28;19.65;84.10
72128;DHT22;60000;51.030;7.024;2022-08-20T03:35:55;19.65;84.06
72128;DHT22;60000;51.030;7.024;2022-08-20T03:38:22;19.65;84.06
72128;DHT22;60000;51.030;7.024;2022-08-20T03:40:48;19.68;84.04
72128;DHT22;60000;51.030;7.024;2022-08-20T03:43:13;19.68;84.02
72128;DHT22;60000;51.030;7.024;2022-08-20T03:45:41;19.67;84.02
72128;DHT22;60000;51.030;7.024;2022-08-20T03:48:16;19.68;83.97
72128;DHT22;60000;51.030;7.024;2022-08-20T03:50:42;19.67;83.80
72128;DHT22;60000;51.030;7.024;2022-08-20T03:53:09;19.68;83.67
72128;DHT22;60000;51.030;7.024;2022-08-20T03:55:36;19.68;83.34
72128;DHT22;60000;51.030;7.024;2022-08-20T03:58:04;19.68;83.23
72128;DHT22;60000;51.030;7.024;2022-08-20T04:00:35;19.67;83.27
72128;DHT22;60000;51.030;7.024;2022-08-20T04:03:01;19.64;83.03
72128;DHT22;60000;51.030;7.024;2022-08-20T04:05:28;19.64;83.18
72128;DHT22;60000;51.030;7.024;2022-08-20T04:07:55;19.63;83.44
72128;DHT22;60000;51.030;7.024;2022-08-20T04:10:22;19.63;83.75
72128;DHT22;60000;51.030;7.024;2022-08-20T04:12:48;19.61;83.93
72128;DHT22;60000;51.030;7.024;2022-08-20T04:15:15;19.60;84.04
72128;DHT22;60000;51.030;7.024;2022-08-20T04:17:46;19.57;84.21
72128;DHT22;60000;51.030;7.024;2022-08-20T04:20:20;19.58;84.40
72128;DHT22;60000;51.030;7.024;2022-08-20T04:22:51;19.58;84.63
72128;DHT22;60000;51.030;7.024;2022-08-20T04:25:17;19.55;84.79
72128;DHT22;60000;51.030;7.024;2022-08-20T04:27:43;19.55;84.82
72128;DHT22;60000;51.030;7.024;2022-08-20T04:30:12;19.54;84.93
72128;DHT22;60000;51.030;7.024;2022-08-20T04:32:39;19.53;85.06
72128;DHT22;60000;51.030;7.024;2022-08-20T04:35:06;19.57;85.13
72128;DHT22;60000;51.030;7.024;2022-08-20T04:37:32;19.58;85.10
72128;DHT22;60000;51.030;7.024;2022-08-20T04:40:04;19.60;85.05
72128;DHT22;60000;51.030;7.024;2022-08-20T04:42:49;19.60;85.02
72128;DHT22;60000;51.030;7.024;2022-08-20T04:45:15;19.60;84.97
72128;DHT22;60000;51.030;7.024;2022-08-20T04:47:40;19.61;85.01
72128;DHT22;60000;51.030;7.024;2022-08-20T04:50:08;19.61;85.17
72128;DHT22;60000;51.030;7.024;2022-08-20T04:52:34;19.63;85.31
72128;DHT22;60000;51.030;7.024;2022-08-20T04:55:00;19.63;85.51
72128;DHT22;60000;51.030;7.024;2022-08-20T04:57:26;19.63;85.75
72128;DHT22;60000;51.030;7.024;2022-08-20T04:59:54;19.61;86.08
72128;DHT22;60000;51.030;7.024;2022-08-20T05:02:20;19.60;86.47
72128;DHT22;60000;51.030;7.024;2022-08-20T05:04:46;19.57;86.70
72128;DHT22;60000;51.030;7.024;2022-08-20T05:07:16;19.55;87.36
72128;DHT22;60000;51.030;7.024;2022-08-20T05:09:43;19.51;87.60
72128;DHT22;60000;51.030;7.024;2022-08-20T05:12:09;19.49;87.92
72128;DHT22;60000;51.030;7.024;2022-08-20T05:14:34;19.44;88.27
72128;DHT22;60000;51.030;7.024;2022-08-20T05:17:03;19.41;88.76
72128;DHT22;60000;51.030;7.024;2022-08-20T05:19:33;19.38;88.92
72128;DHT22;60000;51.030;7.024;2022-08-20T05:22:02;19.36;89.23
72128;DHT22;60000;51.030;7.024;2022-08-20T05:24:27;19.36;89.64
72128;DHT22;60000;51.030;7.024;2022-08-20T05:26:53;19.36;89.59
72128;DHT22;60000;51.030;7.024;2022-08-20T05:29:20;19.31;89.65
72128;DHT22;60000;51.030;7.024;2022-08-20T05:31:46;19.33;89.90
72128;DHT22;60000;51.030;7.024;2022-08-20T05:34:12;19.33;89.95
72128;DHT22;60000;51.030;7.024;2022-08-20T05:36:39;19.28;89.96
72128;DHT22;60000;51.030;7.024;2022-08-20T05:39:06;19.27;89.98
72128;DHT22;60000;51.030;7.024;2022-08-20T05:41:33;19.26;90.13
72128;DHT22;60000;51.030;7.024;2022-08-20T05:43:59;19.27;90.02
72128;DHT22;60000;51.030;7.024;2022-08-20T05:46:25;19.27;90.23
72128;DHT22;60000;51.030;7.024;2022-08-20T05:48:50;19.27;90.44
72128;DHT22;60000;51.030;7.024;2022-08-20T05:51:16;19.27;90.42
72128;DHT22;60000;51.030;7.024;2022-08-20T05:53:41;19.26;90.16
72128;DHT22;60000;51.030;7.024;2022-08-20T05:56:08;19.28;90.38
72128;DHT22;60000;51.030;7.024;2022-08-20T05:58:35;19.30;90.41
72128;DHT22;60000;51.030;7.024;2022-08-20T06:01:03;19.31;90.36
72128;DHT22;60000;51.030;7.024;2022-08-20T06:03:29;19.30;90.52
72128;DHT22;60000;51.030;7.024;2022-08-20T06:06:13;19.28;90.39
72128;DHT22;60000;51.030;7.024;2022-08-20T06:08:38;19.27;90.19
72128;DHT22;60000;51.030;7.024;2022-08-20T06:11:04;19.26;90.10
72128;DHT22;60000;51.030;7.024;2022-08-20T06:13:31;19.28;89.87
72128;DHT22;60000;51.030;7.024;2022-08-20T06:15:57;19.28;90.13
72128;DHT22;60000;51.030;7.024;2022-08-20T06:18:23;19.28;90.19
72128;DHT22;60000;51.030;7.024;2022-08-20T06:20:48;19.31;90.33
72128;DHT22;60000;51.030;7.024;2022-08-20T06:23:15;19.31;90.09
72128;DHT22;60000;51.030;7.024;2022-08-20T06:25:41;19.34;89.90
72128;DHT22;60000;51.030;7.024;2022-08-20T06:28:07;19.33;89.39
72128;DHT22;60000;51.030;7.024;2022-08-20T06:30:33;19.30;89.62
72128;DHT22;60000;51.030;7.024;2022-08-20T06:32:58;19.33;89.65
72128;DHT22;60000;51.030;7.024;2022-08-20T06:35:24;19.31;89.33
72128;DHT22;60000;51.030;7.024;2022-08-20T06:37:50;19.31;89.47
72128;DHT22;60000;51.030;7.024;2022-08-20T06:40:20;19.34;89.49
72128;DHT22;60000;51.030;7.024;2022-08-20T06:42:47;19.27;88.85
72128;DHT22;60000;51.030;7.024;2022-08-20T06:45:18;19.26;88.89
72128;DHT22;60000;51.030;7.024;2022-08-20T06:47:45;19.26;89.00
72128;DHT22;60000;51.030;7.024;2022-08-20T06:50:15;19.24;88.70
72128;DHT22;60000;51.030;7.024;2022-08-20T06:52:41;19.24;88.46
72128;DHT22;60000;51.030;7.024;2022-08-20T06:55:09;19.20;88.21
72128;DHT22;60000;51.030;7.024;2022-08-20T06:57:36;19.20;88.53
72128;DHT22;60000;51.030;7.024;2022-08-20T07:00:08;19.20;88.38
72128;DHT22;60000;51.030;7.024;2022-08-20T07:02:33;19.15;88.35
72128;DHT22;60000;51.030;7.024;2022-08-20T07:05:00;19.13;88.29
72128;DHT22;60000;51.030;7.024;2022-08-20T07:07:25;19.09;88.36
72128;DHT22;60000;51.030;7.024;2022-08-20T07:09:58;19.07;88.64
72128;DHT22;60000;51.030;7.024;2022-08-20T07:12:23;19.07;88.53
72128;DHT22;60000;51.030;7.024;2022-08-20T07:14:49;19.02;88.52
72128;DHT22;60000;51.030;7.024;2022-08-20T07:17:14;19.03;88.74
72128;DHT22;60000;51.030;7.024;2022-08-20T07:19:40;19.00;88.40
72128;DHT22;60000;51.030;7.024;2022-08-20T07:22:05;19.00;87.91
72128;DHT22;60000;51.030;7.024;2022-08-20T07:24:31;19.07;88.08
72128;DHT22;60000;51.030;7.024;2022-08-20T07:26:57;19.07;88.41
72128;DHT22;60000;51.030;7.024;2022-08-20T07:29:23;19.16;88.28
72128;DHT22;60000;51.030;7.024;2022-08-20T07:32:08;19.16;87.97
72128;DHT22;60000;51.030;7.024;2022-08-20T07:34:52;19.20;87.66
72128;DHT22;60000;51.030;7.024;2022-08-20T07:37:17;19.17;87.39
72128;DHT22;60000;51.030;7.024;2022-08-20T07:39:47;19.17;87.26
72128;DHT22;60000;51.030;7.024;2022-08-20T07:42:13;19.19;86.94
72128;DHT22;60000;51.030;7.024;2022-08-20T07:44:38;19.20;86.25
72128;DHT22;60000;51.030;7.024;2022-08-20T07:47:03;19.24;86.34
72128;DHT22;60000;51.030;7.024;2022-08-20T07:49:30;19.31;86.17
72128;DHT22;60000;51.030;7.024;2022-08-20T07:51:57;19.37;86.14
72128;DHT22;60000;51.030;7.024;2022-08-20T07:54:22;19.38;85.66
72128;DHT22;60000;51.030;7.024;2022-08-20T07:56:48;19.46;85.48
72128;DHT22;60000;51.030;7.024;2022-08-20T07:59:13;19.50;84.14
72128;DHT22;60000;51.030;7.024;2022-08-20T08:01:39;19.54;84.33
72128;DHT22;60000;51.030;7.024;2022-08-20T08:04:04;19.55;84.08
72128;DHT22;60000;51.030;7.024;2022-08-20T08:06:30;19.61;83.28
72128;DHT22;60000;51.030;7.024;2022-08-20T08:09:09;19.65;83.50
72128;DHT22;60000;51.030;7.024;2022-08-20T08:11:39;19.78;83.12
72128;DHT22;60000;51.030;7.024;2022-08-20T08:14:07;19.98;83.31
72128;DHT22;60000;51.030;7.024;2022-08-20T08:16:33;20.05;82.38
72128;DHT22;60000;51.030;7.024;2022-08-20T08:18:59;20.11;82.24
72128;DHT22;60000;51.030;7.024;2022-08-20T08:21:25;20.09;81.15
72128;DHT22;60000;51.030;7.024;2022-08-20T08:23:51;20.02;80.96
72128;DHT22;60000;51.030;7.024;2022-08-20T08:26:17;19.98;80.70
72128;DHT22;60000;51.030;7.024;2022-08-20T08:28:44;19.89;81.15
72128;DHT22;60000;51.030;7.024;2022-08-20T08:31:10;19.88;80.63
72128;DHT22;60000;51.030;7.024;2022-08-20T08:33:35;19.82;80.84
72128;DHT22;60000;51.030;7.024;2022-08-20T08:36:14;19.78;80.96
72128;DHT22;60000;51.030;7.024;2022-08-20T08:38:42;19.77;80.89
72128;DHT22;60000;51.030;7.024;2022-08-20T08:44:06;19.84;81.19
72128;DHT22;60000;51.030;7.024;2022-08-20T08:46:38;19.88;80.55
72128;DHT22;60000;51.030;7.024;2022-08-20T08:49:05;19.86;79.88
72128;DHT22;60000;51.030;7.024;2022-08-20T08:51:38;19.79;79.10
72128;DHT22;60000;51.030;7.024;2022-08-20T08:54:06;19.71;79.48
72128;DHT22;60000;51.030;7.024;2022-08-20T08:56:33;19.64;79.53
72128;DHT22;60000;51.030;7.024;2022-08-20T08:59:05;19.58;79.64
72128;DHT22;60000;51.030;7.024;2022-08-20T09:01:38;19.44;79.75
72128;DHT22;60000;51.030;7.024;2022-08-20T09:04:06;19.40;79.85
72128;DHT22;60000;51.030;7.024;2022-08-20T09:06:32;19.38;80.21
72128;DHT22;60000;51.030;7.024;2022-08-20T09:08:59;19.41;80.60
72128;DHT22;60000;51.030;7.024;2022-08-20T09:11:26;19.44;80.77
72128;DHT22;60000;51.030;7.024;2022-08-20T09:13:53;19.43;80.43
72128;DHT22;60000;51.030;7.024;2022-08-20T09:16:20;19.38;80.74
72128;DHT22;60000;51.030;7.024;2022-08-20T09:18:47;19.34;80.48
72128;DHT22;60000;51.030;7.024;2022-08-20T09:21:12;19.31;80.80
72128;DHT22;60000;51.030;7.024;2022-08-20T09:23:39;19.22;80.37
72128;DHT22;60000;51.030;7.024;2022-08-20T09:26:05;19.16;80.66
72128;DHT22;60000;51.030;7.024;2022-08-20T09:28:30;19.23;81.32
72128;DHT22;60000;51.030;7.024;2022-08-20T09:30:58;19.24;81.04
72128;DHT22;60000;51.030;7.024;2022-08-20T09:33:24;19.27;81.02
72128;DHT22;60000;51.030;7.024;2022-08-20T09:35:50;19.33;80.81
72128;DHT22;60000;51.030;7.024;2022-08-20T09:38:15;19.37;80.35
72128;DHT22;60000;51.030;7.024;2022-08-20T09:40:41;19.38;80.20
72128;DHT22;60000;51.030;7.024;2022-08-20T09:43:07;19.47;80.48
72128;DHT22;60000;51.030;7.024;2022-08-20T09:45:34;19.53;80.21
72128;DHT22;60000;51.030;7.024;2022-08-20T09:47:59;19.57;79.84
72128;DHT22;60000;51.030;7.024;2022-08-20T09:50:26;19.67;80.14
72128;DHT22;60000;51.030;7.024;2022-08-20T09:52:53;19.78;79.83
72128;DHT22;60000;51.030;7.024;2022-08-20T09:55:25;19.91;78.72
72128;DHT22;60000;51.030;7.024;2022-08-20T09:57:52;19.95;78.05
72128;DHT22;60000;51.030;7.024;2022-08-20T10:00:18;20.01;77.70
72128;DHT22;60000;51.030;7.024;2022-08-20T10:02:44;20.05;77.57
72128;DHT22;60000;51.030;7.024;2022-08-20T10:05:10;20.18;77.75
72128;DHT22;60000;51.030;7.024;2022-08-20T10:07:37;20.25;77.45
72128;DHT22;60000;51.030;7.024;2022-08-20T10:10:04;20.36;77.25
72128;DHT22;60000;51.030;7.024;2022-08-20T10:12:29;20.43;76.06
72128;DHT22;60000;51.030;7.024;2022-08-20T10:14:55;20.50;75.68
72128;DHT22;60000;51.030;7.024;2022-08-20T10:17:20;20.70;76.04
72128;DHT22;60000;51.030;7.024;2022-08-20T10:19:46;20.70;74.60
72128;DHT22;60000;51.030;7.024;2022-08-20T10:22:11;20.91;75.51
72128;DHT22;60000;51.030;7.024;2022-08-20T10:24:36;21.04;74.91
72128;DHT22;60000;51.030;7.024;2022-08-20T10:27:02;21.18;74.00
72128;DHT22;60000;51.030;7.024;2022-08-20T10:29:28;21.38;73.67
72128;DHT22;60000;51.030;7.024;2022-08-20T10:31:54;21.42;72.34
72128;DHT22;60000;51.030;7.024;2022-08-20T10:34:22;21.45;72.61
72128;DHT22;60000;51.030;7.024;2022-08-20T10:36:50;21.49;72.36
72128;DHT22;60000;51.030;7.024;2022-08-20T10:39:18;21.52;72.15
72128;DHT22;60000;51.030;7.024;2022-08-20T10:41:43;21.51;72.24
72128;DHT22;60000;51.030;7.024;2022-08-20T10:44:09;21.58;71.75
72128;DHT22;60000;51.030;7.024;2022-08-20T10:46:34;21.62;70.86
72128;DHT22;60000;51.030;7.024;2022-08-20T10:49:00;21.85;71.96
72128;DHT22;60000;51.030;7.024;2022-08-20T10:51:25;21.93;70.26
72128;DHT22;60000;51.030;7.024;2022-08-20T10:53:51;22.01;69.76
72128;DHT22;60000;51.030;7.024;2022-08-20T10:56:16;22.04;70.37
72128;DHT22;60000;51.030;7.024;2022-08-20T10:58:41;22.20;69.50
72128;DHT22;60000;51.030;7.024;2022-08-20T11:01:07;22.37;69.11
72128;DHT22;60000;51.030;7.024;2022-08-20T11:03:33;22.51;68.17
72128;DHT22;60000;51.030;7.024;2022-08-20T11:05:59;22.67;68.30
72128;DHT22;60000;51.030;7.024;2022-08-20T11:08:24;22.81;67.16
72128;DHT22;60000;51.030;7.024;2022-08-20T11:10:50;22.84;66.35
72128;DHT22;60000;51.030;7.024;2022-08-20T11:13:16;22.89;66.24
72128;DHT22;60000;51.030;7.024;2022-08-20T11:15:42;22.81;65.53
72128;DHT22;60000;51.030;7.024;2022-08-20T11:18:11;23.37;67.41
72128;DHT22;60000;51.030;7.024;2022-08-20T11:20:37;23.36;64.22
72128;DHT22;60000;51.030;7.024;2022-08-20T11:23:03;23.39;64.61
72128;DHT22;60000;51.030;7.024;2022-08-20T11:25:29;23.31;63.55
72128;DHT22;60000;51.030;7.024;2022-08-20T11:27:55;23.22;63.82
72128;DHT22;60000;51.030;7.024;2022-08-20T11:30:24;23.39;64.03
72128;DHT22;60000;51.030;7.024;2022-08-20T11:32:50;23.60;63.37
72128;DHT22;60000;51.030;7.024;2022-08-20T11:35:16;23.60;63.05
72128;DHT22;60000;51.030;7.024;2022-08-20T11:37:42;23.53;63.04
72128;DHT22;60000;51.030;7.024;2022-08-20T11:40:08;23.66;63.16
72128;DHT22;60000;51.030;7.024;2022-08-20T11:42:35;24.19;61.73
72128;DHT22;60000;51.030;7.024;2022-08-20T11:45:01;24.66;61.89
72128;DHT22;60000;51.030;7.024;2022-08-20T11:47:28;24.79;59.87
72128;DHT22;60000;51.030;7.024;2022-08-20T11:50:03;24.77;59.20
72128;DHT22;60000;51.030;7.024;2022-08-20T11:52:29;24.75;58.31
72128;DHT22;60000;51.030;7.024;2022-08-20T11:54:55;25.24;59.67
72128;DHT22;60000;51.030;7.024;2022-08-20T11:57:22;25.61;56.72
72128;DHT22;60000;51.030;7.024;2022-08-20T11:59:52;25.85;56.17
72128;DHT22;60000;51.030;7.024;2022-08-20T12:02:17;25.85;55.07
72128;DHT22;60000;51.030;7.024;2022-08-20T12:04:43;25.71;55.38
72128;DHT22;60000;51.030;7.024;2022-08-20T12:07:10;25.49;56.54
72128;DHT22;60000;51.030;7.024;2022-08-20T12:09:36;25.54;56.89
72128;DHT22;60000;51.030;7.024;2022-08-20T12:12:02;25.37;56.91
72128;DHT22;60000;51.030;7.024;2022-08-20T12:14:27;25.51;55.82
72128;DHT22;60000;51.030;7.024;2022-08-20T12:16:53;25.46;55.65
72128;DHT22;60000;51.030;7.024;2022-08-20T12:19:18;25.17;56.28
72128;DHT22;60000;51.030;7.024;2022-08-20T12:21:44;25.20;56.70
72128;DHT22;60000;51.030;7.024;2022-08-20T12:24:09;25.42;55.32
72128;DHT22;60000;51.030;7.024;2022-08-20T12:26:34;25.59;54.67
72128;DHT22;60000;51.030;7.024;2022-08-20T12:29:00;25.68;54.35
72128;DHT22;60000;51.030;7.024;2022-08-20T12:31:25;25.76;53.90
72128;DHT22;60000;51.030;7.024;2022-08-20T12:33:51;25.93;52.97
72128;DHT22;60000;51.030;7.024;2022-08-20T12:36:18;26.03;52.68
72128;DHT22;60000;51.030;7.024;2022-08-20T12:38:44;25.90;52.51
72128;DHT22;60000;51.030;7.024;2022-08-20T12:41:09;26.06;51.00
72128;DHT22;60000;51.030;7.024;2022-08-20T12:43:34;26.00;50.87
72128;DHT22;60000;51.030;7.024;2022-08-20T12:46:00;25.92;50.84
72128;DHT22;60000;51.030;7.024;2022-08-20T12:48:25;26.00;51.81
72128;DHT22;60000;51.030;7.024;2022-08-20T12:50:50;25.97;50.97
72128;DHT22;60000;51.030;7.024;2022-08-20T12:53:17;26.00;51.17
72128;DHT22;60000;51.030;7.024;2022-08-20T12:55:43;26.12;51.22
72128;DHT22;60000;51.030;7.024;2022-08-20T12:58:09;26.19;50.91
72128;DHT22;60000;51.030;7.024;2022-08-20T13:00:40;26.24;51.20
72128;DHT22;60000;51.030;7.024;2022-08-20T13:03:08;26.36;50.11
72128;DHT22;60000;51.030;7.024;2022-08-20T13:05:34;26.23;49.91
72128;DHT22;60000;51.030;7.024;2022-08-20T13:08:00;25.99;51.39
72128;DHT22;60000;51.030;7.024;2022-08-20T13:10:30;26.00;51.91
72128;DHT22;60000;51.030;7.024;2022-08-20T13:12:57;25.82;51.24
72128;DHT22;60000;51.030;7.024;2022-08-20T13:15:24;25.94;50.82
72128;DHT22;60000;51.030;7.024;2022-08-20T13:17:54;25.86;50.37
72128;DHT22;60000;51.030;7.024;2022-08-20T13:20:21;26.10;51.76
72128;DHT22;60000;51.030;7.024;2022-08-20T13:22:50;26.12;50.25
72128;DHT22;60000;51.030;7.024;2022-08-20T13:25:15;26.14;49.80
72128;DHT22;60000;51.030;7.024;2022-08-20T13:27:42;26.20;48.57
72128;DHT22;60000;51.030;7.024;2022-08-20T13:30:10;26.24;48.66
72128;DHT22;60000;51.030;7.024;2022-08-20T13:32:36;26.33;48.06
72128;DHT22;60000;51.030;7.024;2022-08-20T13:35:02;26.37;48.48
72128;DHT22;60000;51.030;7.024;2022-08-20T13:37:28;26.41;49.00
72128;DHT22;60000;51.030;7.024;2022-08-20T13:39:54;26.32;47.54
72128;DHT22;60000;51.030;7.024;2022-08-20T13:42:20;26.13;47.99
72128;DHT22;60000;51.030;7.024;2022-08-20T13:44:46;26.07;49.36
72128;DHT22;60000;51.030;7.024;2022-08-20T13:47:28;25.89;49.60
72128;DHT22;60000;51.030;7.024;2022-08-20T13:52:31;25.46;48.69
72128;DHT22;60000;51.030;7.024;2022-08-20T13:54:56;25.48;49.02
72128;DHT22;60000;51.030;7.024;2022-08-20T13:57:23;25.76;49.77
72128;DHT22;60000;51.030;7.024;2022-08-20T13:59:51;25.89;47.86
72128;DHT22;60000;51.030;7.024;2022-08-20T14:02:17;25.97;46.90
72128;DHT22;60000;51.030;7.024;2022-08-20T14:04:44;26.02;46.75
72128;DHT22;60000;51.030;7.024;2022-08-20T14:09:49;26.33;46.11
72128;DHT22;60000;51.030;7.024;2022-08-20T14:12:30;26.23;45.88
72128;DHT22;60000;51.030;7.024;2022-08-20T14:14:55;26.23;45.02
72128;DHT22;60000;51.030;7.024;2022-08-20T14:17:29;26.34;44.90
72128;DHT22;60000;51.030;7.024;2022-08-20T14:19:57;26.71;46.29
72128;DHT22;60000;51.030;7.024;2022-08-20T14:22:23;26.78;44.07
72128;DHT22;60000;51.030;7.024;2022-08-20T14:24:49;26.78;43.96
72128;DHT22;60000;51.030;7.024;2022-08-20T14:27:18;26.82;44.48
72128;DHT22;60000;51.030;7.024;2022-08-20T14:29:45;26.74;43.90
72128;DHT22;60000;51.030;7.024;2022-08-20T14:32:11;26.62;44.50
72128;DHT22;60000;51.030;7.024;2022-08-20T14:34:37;26.47;44.14
72128;DHT22;60000;51.030;7.024;2022-08-20T14:37:18;26.58;44.36
72128;DHT22;60000;51.030;7.024;2022-08-20T14:39:47;26.67;44.33
72128;DHT22;60000;51.030;7.024;2022-08-20T14:42:13;26.80;43.93
72128;DHT22;60000;51.030;7.024;2022-08-20T14:44:42;26.81;43.70
72128;DHT22;60000;51.030;7.024;2022-08-20T14:47:14;26.81;42.63
72128;DHT22;60000;51.030;7.024;2022-08-20T14:49:40;26.88;43.53
72128;DHT22;60000;51.030;7.024;2022-08-20T14:52:06;26.81;43.33
72128;DHT22;60000;51.030;7.024;2022-08-20T14:54:33;26.87;43.87
72128;DHT22;60000;51.030;7.024;2022-08-20T14:56:58;26.82;43.05
72128;DHT22;60000;51.030;7.024;2022-08-20T14:59:24;26.77;42.25
72128;DHT22;60000;51.030;7.024;2022-08-20T15:01:49;26.71;41.43
72128;DHT22;60000;51.030;7.024;2022-08-20T15:04:14;26.68;40.95
72128;DHT22;60000;51.030;7.024;2022-08-20T15:06:40;26.62;41.95
72128;DHT22;60000;51.030;7.024;2022-08-20T15:09:05;26.55;42.08
72128;DHT22;60000;51.030;7.024;2022-08-20T15:11:31;26.53;42.83
72128;DHT22;60000;51.030;7.024;2022-08-20T15:13:56;26.55;42.88
72128;DHT22;60000;51.030;7.024;2022-08-20T15:16:21;26.57;41.99
72128;DHT22;60000;51.030;7.024;2022-08-20T15:18:48;26.67;42.32
72128;DHT22;60000;51.030;7.024;2022-08-20T15:21:13;26.53;40.71
72128;DHT22;60000;51.030;7.024;2022-08-20T15:23:39;26.53;40.84
72128;DHT22;60000;51.030;7.024;2022-08-20T15:26:06;26.37;40.12
72128;DHT22;60000;51.030;7.024;2022-08-20T15:28:32;26.34;40.16
72128;DHT22;60000;51.030;7.024;2022-08-20T15:30:57;26.37;41.07
72128;DHT22;60000;51.030;7.024;2022-08-20T15:33:25;26.37;40.57
72128;DHT22;60000;51.030;7.024;2022-08-20T15:35:51;26.32;40.13
72128;DHT22;60000;51.030;7.024;2022-08-20T15:38:16;26.29;40.54
72128;DHT22;60000;51.030;7.024;2022-08-20T15:40:41;26.30;40.75
72128;DHT22;60000;51.030;7.024;2022-08-20T15:43:07;26.20;40.03
72128;DHT22;60000;51.030;7.024;2022-08-20T15:45:33;26.32;40.66